Time;durP1;ratioP1;P1;durP2;ratioP2;P2;SDS_P1;SDS_P2;PMS_P1;PMS_P2;Temp;Humidity;BMP_temperature;BMP_pressure;BME280_temperature;BME280_humidity;BME280_pressure;Samples;Min_cycle;Max_cycle;Signal;HPM_P1;HPM_P2
2023/07/10 00:02:42;;;;;;;38.05;23.50;;;;;;;21.62;100.00;101228.63;4841974;29;20118;-79
2023/07/10 00:09:26;;;;;;;32.80;22.85;;;;;;;21.57;100.00;101219.63;4842628;29;20061;-81
2023/07/10 00:15:46;;;;;;;32.40;22.35;;;;;;;21.53;100.00;101209.41;4921935;29;20460;-81
2023/07/10 00:18:36;;;;;;;32.83;21.77;;;;;;;21.41;100.00;101208.44;4899387;29;20056;-82
2023/07/10 00:21:32;;;;;;;30.42;22.27;;;;;;;21.49;100.00;101226.84;4924864;29;20044;-82
2023/07/10 00:24:18;;;;;;;32.20;22.45;;;;;;;21.46;100.00;101226.44;4910290;29;20456;-78
2023/07/10 00:29:58;;;;;;;36.63;21.90;;;;;;;21.46;100.00;101234.44;4942981;29;20050;-81
2023/07/10 00:32:37;;;;;;;36.58;22.60;;;;;;;21.37;100.00;101233.84;4962316;29;20047;-80
2023/07/10 00:35:31;;;;;;;38.80;23.65;;;;;;;21.46;100.00;101256.56;4962621;28;20079;-81
2023/07/10 00:45:09;;;;;;;43.83;23.83;;;;;;;21.44;100.00;101210.69;4910678;28;20058;-81
2023/07/10 00:47:52;;;;;;;40.60;25.27;;;;;;;21.57;100.00;101231.09;4957561;29;20051;-81
2023/07/10 00:54:13;;;;;;;40.92;25.67;;;;;;;21.64;100.00;101249.72;4949913;28;20149;-81
2023/07/10 00:57:33;;;;;;;43.97;26.35;;;;;;;21.56;100.00;101239.31;4958232;29;20066;-81
2023/07/10 01:00:32;;;;;;;42.20;26.27;;;;;;;21.62;100.00;101260.56;4921793;29;20111;-83
2023/07/10 01:06:53;;;;;;;40.65;25.60;;;;;;;21.39;100.00;101229.13;4914789;29;20500;-80
2023/07/10 01:09:29;;;;;;;41.75;24.70;;;;;;;21.60;100.00;101251.16;4958238;29;20130;-80
2023/07/10 01:12:13;;;;;;;;;;;;;;;;;;;;;
2023/07/10 01:14:43;;;;;;;52.85;27.58;;;;;;;21.43;100.00;101249.00;4969769;28;20086;-77
2023/07/10 01:17:16;;;;;;;49.53;28.08;;;;;;;21.41;100.00;101253.72;4969753;28;20087;-78
2023/07/10 01:23:32;;;;;;;36.10;28.52;;;;;;;21.40;100.00;101256.56;4931720;28;20078;-80
2023/07/10 01:26:03;;;;;;;39.85;29.58;;;;;;;21.33;100.00;101243.28;4960836;28;20126;-80
2023/07/10 01:28:34;;;;;;;38.47;28.48;;;;;;;21.23;100.00;101223.50;4961309;28;20064;-79
2023/07/10 01:35:33;;;;;;;35.17;28.30;;;;;;;21.20;100.00;101238.84;4937689;23;20070;-81
2023/07/10 01:38:45;;;;;;;40.05;29.67;;;;;;;21.21;100.00;101253.00;4910450;29;20106;-81
2023/07/10 01:48:25;;;;;;;32.58;28.80;;;;;;;20.96;100.00;101238.72;4829998;29;20057;-82
2023/07/10 01:51:28;;;;;;;34.97;28.48;;;;;;;21.03;100.00;101260.78;4863838;29;20132;-79
2023/07/10 01:57:56;;;;;;;41.00;29.73;;;;;;;20.92;100.00;101262.25;4870602;29;20091;-81
2023/07/10 02:00:47;;;;;;;;;;;;;;;;;;;;;
2023/07/10 02:03:26;;;;;;;38.50;31.08;;;;;;;20.77;100.00;101251.88;4882846;29;20609;-80
2023/07/10 02:06:12;;;;;;;33.67;30.17;;;;;;;20.85;100.00;101272.09;4922006;29;20122;-80
2023/07/10 02:08:55;;;;;;;34.35;30.08;;;;;;;20.91;100.00;101283.75;4942839;29;20048;-80
2023/07/10 02:11:56;;;;;;;;;;;;;;;;;;;;;
2023/07/10 02:14:26;;;;;;;41.47;32.38;;;;;;;20.61;100.00;101252.31;4936851;29;20127;-79
2023/07/10 02:17:26;;;;;;;36.20;31.27;;;;;;;20.79;100.00;101284.41;4943015;29;20055;-80
2023/07/10 02:20:09;;;;;;;47.25;32.97;;;;;;;20.60;100.00;101279.09;4944103;29;20059;-79
2023/07/10 02:22:47;;;;;;;47.90;32.45;;;;;;;20.42;100.00;101277.06;4942854;29;20242;-79
2023/07/10 02:25:14;;;;;;;47.88;31.90;;;;;;;20.45;100.00;101293.41;4941029;29;20043;-80
2023/07/10 02:27:40;;;;;;;40.22;30.75;;;;;;;20.51;100.00;101300.56;4941501;29;20135;-80
2023/07/10 02:30:08;;;;;;;38.60;30.27;;;;;;;20.50;100.00;101303.44;4940349;29;20052;-80
2023/07/10 02:32:36;;;;;;;42.45;30.92;;;;;;;20.56;100.00;101302.63;4935065;29;20051;-80
2023/07/10 02:35:03;;;;;;;38.70;30.70;;;;;;;20.56;100.00;101301.78;4939743;29;20138;-80
2023/07/10 02:37:29;;;;;;;45.63;32.28;;;;;;;20.49;100.00;101291.16;4940581;29;20055;-81
2023/07/10 02:39:56;;;;;;;36.95;30.42;;;;;;;20.55;100.00;101298.31;4940023;29;20539;-80
2023/07/10 02:42:23;;;;;;;41.08;32.08;;;;;;;20.55;100.00;101300.97;4940815;29;20078;-80
2023/07/10 02:44:50;;;;;;;38.45;32.20;;;;;;;20.43;100.00;101299.94;4940043;29;20058;-77
2023/07/10 02:47:16;;;;;;;36.50;31.10;;;;;;;20.41;100.00;101310.78;4938458;29;20066;-80
2023/07/10 02:49:44;;;;;;;38.22;33.05;;;;;;;20.44;100.00;101306.91;4939978;29;20151;-79
2023/07/10 02:52:11;;;;;;;39.10;32.72;;;;;;;20.41;100.00;101315.28;4940834;29;20098;-80
2023/07/10 02:54:38;;;;;;;42.08;35.83;;;;;;;20.34;100.00;101323.22;4939239;29;20130;-80
2023/07/10 02:57:05;;;;;;;38.33;32.47;;;;;;;20.30;100.00;101324.69;4938922;29;20475;-78
2023/07/10 02:59:31;;;;;;;42.90;33.55;;;;;;;20.18;100.00;101327.09;4939069;29;20135;-79
2023/07/10 03:01:59;;;;;;;35.92;32.03;;;;;;;20.21;100.00;101325.88;4938984;29;20098;-79
2023/07/10 03:04:26;;;;;;;38.03;31.63;;;;;;;20.18;100.00;101321.78;4938135;29;20583;-79
2023/07/10 03:06:54;;;;;;;42.22;32.47;;;;;;;20.24;100.00;101316.69;4938341;29;20415;-81
2023/07/10 03:09:21;;;;;;;37.10;31.15;;;;;;;20.23;100.00;101323.03;4939439;29;20090;-82
2023/07/10 03:11:47;;;;;;;36.72;31.63;;;;;;;20.13;100.00;101310.94;4939903;29;20105;-82
2023/07/10 03:14:14;;;;;;;40.22;31.77;;;;;;;20.24;100.00;101314.84;4939607;29;20051;-82
2023/07/10 03:16:41;;;;;;;38.42;31.48;;;;;;;20.19;100.00;101312.81;4939966;29;20086;-81
2023/07/10 03:19:07;;;;;;;35.58;30.88;;;;;;;20.16;100.00;101313.22;4940116;29;20052;-79
2023/07/10 03:21:34;;;;;;;38.25;29.80;;;;;;;20.17;100.00;101316.69;4940367;29;20130;-80
2023/07/10 03:24:02;;;;;;;34.95;27.45;;;;;;;20.20;100.00;101314.44;4940333;29;20098;-81
2023/07/10 03:26:29;;;;;;;34.45;28.17;;;;;;;20.20;100.00;101317.09;4939661;29;20052;-82
2023/07/10 03:29:04;;;;;;;35.97;28.20;;;;;;;20.18;100.00;101316.47;4939536;29;20086;-82
2023/07/10 03:31:32;;;;;;;32.47;27.77;;;;;;;20.06;100.00;101312.78;4936578;29;20134;-81
2023/07/10 03:33:58;;;;;;;33.78;25.63;;;;;;;20.03;100.00;101313.19;4939196;29;20121;-80
2023/07/10 03:36:25;;;;;;;31.45;26.08;;;;;;;20.13;100.00;101300.31;4939991;29;20111;-80
2023/07/10 03:38:52;;;;;;;31.80;25.63;;;;;;;20.09;100.00;101296.44;4939457;29;20154;-82
2023/07/10 03:41:20;;;;;;;32.67;24.25;;;;;;;20.09;100.00;101301.75;4951603;29;20175;-80
2023/07/10 03:43:48;;;;;;;30.48;24.65;;;;;;;20.22;100.00;101306.25;4950958;28;20056;-80
2023/07/10 03:46:15;;;;;;;33.50;25.70;;;;;;;20.21;100.00;101304.63;4942253;29;20470;-80
2023/07/10 03:48:42;;;;;;;32.00;25.85;;;;;;;20.18;100.00;101311.16;4958694;28;20082;-80
2023/07/10 03:51:09;;;;;;;35.03;24.95;;;;;;;20.12;100.00;101311.97;4939956;28;20073;-77
2023/07/10 03:53:35;;;;;;;38.13;25.55;;;;;;;20.14;100.00;101315.25;4939580;29;20134;-79
2023/07/10 03:56:02;;;;;;;34.75;25.35;;;;;;;20.08;100.00;101313.38;4939369;29;20139;-80
2023/07/10 03:58:32;;;;;;;33.03;25.90;;;;;;;20.11;100.00;101320.97;4937865;29;20464;-79
2023/07/10 04:01:00;;;;;;;29.50;24.73;;;;;;;20.08;100.00;101313.38;4938015;29;20081;-79
2023/07/10 04:03:29;;;;;;;36.10;25.27;;;;;;;20.05;100.00;101328.91;4938268;29;20438;-80
2023/07/10 04:05:58;;;;;;;35.17;24.70;;;;;;;20.08;100.00;101339.97;4938253;29;20143;-80
2023/07/10 04:08:27;;;;;;;38.72;26.77;;;;;;;20.07;100.00;101338.31;4939787;29;20062;-80
2023/07/10 04:10:56;;;;;;;43.35;28.50;;;;;;;19.98;100.00;101336.88;4940262;29;20548;-80
2023/07/10 04:13:23;;;;;;;39.38;27.23;;;;;;;20.03;100.00;101339.75;4938966;29;20043;-80
2023/07/10 04:16:00;;;;;;;43.05;28.05;;;;;;;19.87;100.00;101346.22;4937277;29;20433;-80
2023/07/10 04:18:33;;;;;;;41.67;28.35;;;;;;;19.98;100.00;101344.00;4939071;29;20131;-80
2023/07/10 04:21:01;;;;;;;38.38;27.20;;;;;;;19.97;100.00;101358.31;4938271;29;20048;-79
2023/07/10 04:24:11;;;;;;;47.88;29.45;;;;;;;19.88;100.00;101361.16;4937927;29;20098;-79
2023/07/10 04:30:37;;;;;;;43.10;28.90;;;;;;;19.80;100.00;101364.00;4932380;29;20650;-79
2023/07/10 04:36:26;;;;;;;43.72;29.10;;;;;;;19.61;100.00;101350.63;4972416;23;20043;-80
2023/07/10 04:42:28;;;;;;;;;;;;;;;19.77;100.00;101383.00;4956303;28;20176;-82
2023/07/10 05:31:57;;;;;;;20.23;12.93;;;;;;;19.78;100.00;101418.31;4777733;29;20210;-82
2023/07/10 06:47:47;;;;;;;15.63;9.48;;;;;;;26.42;72.51;101437.81;4881297;29;20126;-82
2023/07/10 06:50:15;;;;;;;17.98;10.35;;;;;;;26.65;72.39;101432.28;4901103;29;20140;-80
2023/07/10 06:52:44;;;;;;;17.50;9.93;;;;;;;26.49;71.98;101443.00;4940256;29;20503;-79
2023/07/10 06:55:13;;;;;;;15.93;9.95;;;;;;;26.09;72.27;101431.25;4941682;29;20135;-79
2023/07/10 06:57:40;;;;;;;14.15;9.93;;;;;;;25.81;72.88;101451.88;4943452;29;20055;-81
2023/07/10 07:00:09;;;;;;;12.63;9.15;;;;;;;25.89;73.04;101438.91;4945273;29;20062;-80
2023/07/10 07:02:36;;;;;;;15.32;8.90;;;;;;;25.49;73.79;101438.06;4939917;29;20111;-81
2023/07/10 07:05:05;;;;;;;12.40;8.00;;;;;;;24.97;75.78;101443.31;4943781;29;20086;-81
2023/07/10 07:07:31;;;;;;;18.65;9.55;;;;;;;24.30;77.21;101434.63;4942960;29;20147;-81
2023/07/10 07:09:58;;;;;;;13.13;8.52;;;;;;;23.68;78.44;101445.44;4943305;29;20115;-81
2023/07/10 07:12:25;;;;;;;15.15;8.38;;;;;;;22.91;80.75;101440.63;4942828;29;20126;-81
2023/07/10 07:14:51;;;;;;;16.00;8.82;;;;;;;22.81;81.67;101449.94;4943363;29;20090;-80
2023/07/10 07:17:18;;;;;;;13.90;8.73;;;;;;;22.82;82.13;101446.22;4944604;29;20107;-81
2023/07/10 07:19:46;;;;;;;14.77;9.07;;;;;;;22.55;83.16;101442.09;4947326;29;20476;-81
2023/07/10 07:22:15;;;;;;;14.13;8.60;;;;;;;22.96;83.69;101438.13;4945605;29;20135;-80
2023/07/10 07:24:41;;;;;;;11.85;8.40;;;;;;;22.97;82.03;101429.09;4944463;29;20083;-84
2023/07/10 07:27:08;;;;;;;13.98;8.70;;;;;;;23.75;79.91;101432.00;4948860;29;20489;-82
2023/07/10 07:29:35;;;;;;;13.63;8.68;;;;;;;24.57;77.62;101435.88;4942714;29;20088;-81
2023/07/10 07:32:02;;;;;;;15.35;7.80;;;;;;;25.40;73.94;101419.66;4938613;29;20125;-81
2023/07/10 07:34:28;;;;;;;14.80;8.55;;;;;;;25.40;71.67;101387.50;4948464;29;20055;-82
2023/07/10 07:36:55;;;;;;;14.50;8.23;;;;;;;25.72;72.44;101433.47;4946609;29;20075;-81
2023/07/10 07:39:27;;;;;;;12.35;7.65;;;;;;;26.04;71.30;101431.16;4946137;29;20078;-81
2023/07/10 07:41:54;;;;;;;12.73;7.00;;;;;;;26.26;70.51;101430.50;4946659;29;20052;-80
2023/07/10 07:44:21;;;;;;;15.38;7.60;;;;;;;26.55;69.37;101432.09;4946356;28;20445;-82
2023/07/10 07:46:47;;;;;;;11.48;7.20;;;;;;;27.50;66.35;101419.56;4947037;29;20135;-82
2023/07/10 07:49:14;;;;;;;11.15;7.47;;;;;;;27.53;66.08;101429.81;4945627;29;20148;-81
2023/07/10 07:51:41;;;;;;;11.18;6.78;;;;;;;28.03;64.83;101432.34;4946780;29;20107;-83
2023/07/10 07:54:22;;;;;;;9.73;6.25;;;;;;;27.58;65.50;101430.72;4946063;29;20051;-83
2023/07/10 07:56:50;;;;;;;11.60;6.60;;;;;;;25.90;68.48;101447.78;4946026;29;20055;-82
2023/07/10 07:59:18;;;;;;;8.75;5.90;;;;;;;26.63;67.40;101445.13;4944675;29;20056;-81
2023/07/10 08:01:44;;;;;;;16.25;5.90;;;;;;;27.10;65.59;101434.09;4941056;29;20147;-81
2023/07/10 08:04:14;;;;;;;9.73;5.82;;;;;;;27.79;64.54;101425.63;4944814;29;20539;-80
2023/07/10 08:06:41;;;;;;;9.70;6.28;;;;;;;27.81;63.93;101429.69;4944920;29;20143;-81
2023/07/10 08:09:08;;;;;;;8.05;5.70;;;;;;;27.48;64.73;101443.19;4944515;29;20091;-81
2023/07/10 08:11:39;;;;;;;14.10;5.97;;;;;;;26.84;65.39;101437.41;4955196;29;20048;-82
2023/07/10 08:14:09;;;;;;;8.77;5.90;;;;;;;27.40;64.32;101434.53;4953664;29;20047;-80
2023/07/10 08:16:35;;;;;;;9.18;5.20;;;;;;;28.03;63.14;101443.91;4942075;29;20043;-81
2023/07/10 08:19:02;;;;;;;8.88;5.13;;;;;;;28.12;61.46;101438.09;4937198;29;20139;-82
2023/07/10 08:21:30;;;;;;;9.77;5.05;;;;;;;29.42;59.51;101435.94;4936937;29;20103;-81
2023/07/10 08:23:57;;;;;;;9.18;5.07;;;;;;;29.62;58.44;101441.44;4933883;29;20068;-80
2023/07/10 08:26:23;;;;;;;8.55;5.38;;;;;;;29.60;58.67;101446.28;4935674;29;20135;-82
2023/07/10 08:28:50;;;;;;;10.50;5.18;;;;;;;30.08;57.26;101428.94;4935238;29;20107;-81
2023/07/10 08:31:19;;;;;;;8.50;5.55;;;;;;;29.65;57.95;101432.84;4936464;29;20159;-81
2023/07/10 08:33:45;;;;;;;11.35;4.95;;;;;;;29.40;58.58;101425.41;4935000;29;20508;-81
2023/07/10 08:36:12;;;;;;;9.55;5.13;;;;;;;28.83;59.82;101442.28;4937783;29;20051;-80
2023/07/10 08:38:39;;;;;;;8.85;5.60;;;;;;;28.45;60.06;101442.47;4937349;29;20083;-79
2023/07/10 08:41:21;;;;;;;8.45;5.07;;;;;;;28.63;60.03;101424.06;4941190;29;20135;-81
2023/07/10 08:43:49;;;;;;;7.93;4.95;;;;;;;28.23;59.56;101427.22;4942457;29;20094;-81
2023/07/10 08:46:20;;;;;;;8.80;4.88;;;;;;;28.39;60.10;101426.28;4933955;29;20067;-80
2023/07/10 08:48:52;;;;;;;7.47;5.13;;;;;;;28.62;58.50;101414.38;4941989;29;20056;-80
2023/07/10 08:51:42;;;;;;;6.75;4.43;;;;;;;29.24;58.71;101404.84;4941532;29;20048;-81
2023/07/10 08:54:12;;;;;;;7.88;4.97;;;;;;;28.56;58.27;101409.19;4941384;29;20107;-81
2023/07/10 08:56:46;;;;;;;11.10;4.70;;;;;;;28.24;59.94;101407.31;4936931;29;20119;-81
2023/07/10 08:59:36;;;;;;;8.18;4.75;;;;;;;28.52;60.33;101410.78;4940974;29;20111;-81
2023/07/10 09:02:10;;;;;;;7.90;4.90;;;;;;;28.32;59.70;101408.72;4941831;29;20055;-81
2023/07/10 09:04:40;;;;;;;7.93;4.13;;;;;;;27.53;60.15;101400.25;4941251;29;20062;-80
2023/07/10 09:07:12;;;;;;;9.50;3.95;;;;;;;27.27;60.58;101386.50;4941332;29;20302;-85
2023/07/10 09:09:42;;;;;;;10.35;4.40;;;;;;;27.89;59.66;101399.63;4944730;29;20594;-81
2023/07/10 09:12:15;;;;;;;8.90;4.25;;;;;;;28.47;58.62;101394.56;4941272;29;20151;-81
2023/07/10 09:14:48;;;;;;;7.45;3.85;;;;;;;28.78;57.61;101392.94;4941644;29;20139;-81
2023/07/10 09:17:23;;;;;;;8.50;4.00;;;;;;;27.93;58.51;101395.38;4935478;29;20472;-81
2023/07/10 09:19:54;;;;;;;5.75;3.55;;;;;;;28.52;57.31;101390.03;4940038;28;20151;-81
2023/07/10 09:22:21;;;;;;;8.32;4.38;;;;;;;27.76;57.50;101386.59;4939804;29;20139;-81
2023/07/10 09:24:48;;;;;;;6.88;4.07;;;;;;;27.70;58.35;101401.84;4940604;29;20074;-79
2023/07/10 09:27:39;;;;;;;8.00;3.85;;;;;;;28.26;56.89;101396.28;4937151;29;20138;-81
2023/07/10 09:30:26;;;;;;;6.73;3.37;;;;;;;28.52;54.59;101375.78;4940408;29;20062;-80
2023/07/10 09:33:01;;;;;;;5.68;3.22;;;;;;;28.72;54.77;101387.53;4939687;29;20130;-82
2023/07/10 09:35:29;;;;;;;7.57;4.00;;;;;;;28.22;53.88;101387.09;4941941;29;20083;-81
2023/07/10 09:37:56;;;;;;;5.82;3.60;;;;;;;28.32;54.23;101381.81;4940909;29;20052;-81
2023/07/10 09:40:35;;;;;;;4.47;3.03;;;;;;;28.46;53.90;101383.00;4936053;29;20524;-82
2023/07/10 09:43:03;;;;;;;6.18;3.25;;;;;;;28.05;53.67;101374.53;4939277;29;20071;-82
2023/07/10 09:45:33;;;;;;;5.00;3.50;;;;;;;27.64;55.50;101385.91;4940709;29;20055;-81
2023/07/10 09:48:01;;;;;;;6.03;4.00;;;;;;;28.38;53.52;101384.28;4937050;29;20139;-78
2023/07/10 09:50:35;;;;;;;6.72;3.35;;;;;;;28.23;53.66;101384.16;4937818;29;20127;-80
2023/07/10 09:53:02;;;;;;;5.60;2.88;;;;;;;28.65;53.29;101386.91;4939460;29;20051;-82
2023/07/10 09:55:28;;;;;;;5.38;3.10;;;;;;;28.52;52.85;101376.59;4939443;29;20062;-81
2023/07/10 09:57:58;;;;;;;5.35;3.03;;;;;;;28.62;53.21;101378.56;4936533;29;20139;-79
2023/07/10 10:00:26;;;;;;;5.38;3.28;;;;;;;28.64;52.37;101376.41;4933807;29;20078;-80
2023/07/10 10:02:57;;;;;;;6.50;3.42;;;;;;;28.87;53.19;101377.94;4937634;29;20522;-80
2023/07/10 10:05:25;;;;;;;5.03;2.90;;;;;;;28.56;53.71;101379.56;4940668;29;20055;-81
2023/07/10 10:07:54;;;;;;;4.43;2.92;;;;;;;28.38;53.02;101380.75;4940597;29;20115;-82
2023/07/10 10:10:25;;;;;;;4.78;3.03;;;;;;;28.01;53.27;101375.28;4933754;29;20130;-80
2023/07/10 10:12:57;;;;;;;5.72;3.70;;;;;;;27.80;53.31;101368.91;4940610;29;20130;-82
2023/07/10 10:15:31;;;;;;;5.90;3.75;;;;;;;27.17;55.34;101374.81;4939326;29;20504;-81
2023/07/10 10:18:03;;;;;;;6.28;3.47;;;;;;;27.41;54.80;101350.13;4941441;29;20052;-82
2023/07/10 10:20:32;;;;;;;;;;;;;;;27.68;55.31;101371.72;4938017;29;20087;-82
2023/07/10 10:22:59;;;;;;;8.55;3.80;;;;;;;28.01;54.72;101375.28;4941366;29;19931;-81
2023/07/10 10:25:34;;;;;;;5.15;3.35;;;;;;;27.92;55.04;101366.03;4940571;29;20079;-80
2023/07/10 10:28:14;;;;;;;5.47;3.70;;;;;;;27.84;53.86;101366.53;4940640;29;20048;-82
2023/07/10 10:30:49;;;;;;;4.82;3.15;;;;;;;28.01;53.95;101359.16;4940335;29;20146;-82
2023/07/10 10:33:27;;;;;;;6.28;3.15;;;;;;;27.24;55.25;101370.88;4935006;29;20086;-82
2023/07/10 10:36:00;;;;;;;6.88;3.60;;;;;;;27.26;55.71;101381.38;4942532;29;20073;-81
2023/07/10 10:38:49;;;;;;;6.20;3.53;;;;;;;27.63;55.18;101370.84;4934211;29;20051;-82
2023/07/10 10:41:37;;;;;;;11.15;4.00;;;;;;;27.49;55.87;101374.94;4938586;29;20512;-81
2023/07/10 10:44:10;;;;;;;7.40;3.63;;;;;;;27.36;55.38;101368.09;4940766;29;20131;-82
2023/07/10 10:46:52;;;;;;;11.77;3.90;;;;;;;27.57;56.79;101379.88;4939539;29;20082;-81
2023/07/10 10:49:33;;;;;;;7.63;4.10;;;;;;;27.44;56.28;101370.31;4938044;29;20104;-81
2023/07/10 10:52:10;;;;;;;6.30;3.40;;;;;;;28.25;55.80;101365.06;4938534;29;20488;-81
2023/07/10 10:54:53;;;;;;;6.97;3.63;;;;;;;28.19;55.22;101357.97;4942173;29;20078;-82
2023/07/10 10:57:35;;;;;;;7.05;3.92;;;;;;;28.25;54.79;101338.97;4941130;29;20150;-82
2023/07/10 11:00:15;;;;;;;7.75;4.20;;;;;;;27.48;56.65;101354.50;4939177;29;20111;-82
2023/07/10 11:03:05;;;;;;;8.77;4.03;;;;;;;27.19;56.96;101360.06;4935052;29;20122;-81
2023/07/10 11:05:40;;;;;;;9.30;4.28;;;;;;;27.66;55.84;101341.59;4939897;29;20087;-80
2023/07/10 11:08:14;;;;;;;6.15;3.75;;;;;;;28.15;55.54;101344.22;4943342;29;20107;-79
2023/07/10 11:10:43;;;;;;;9.15;3.55;;;;;;;28.05;54.21;101331.47;4943130;29;20115;-81
2023/07/10 11:13:20;;;;;;;5.30;3.47;;;;;;;28.32;53.71;101341.44;4943116;29;20066;-81
2023/07/10 11:15:47;;;;;;;5.18;3.22;;;;;;;27.95;53.38;101344.81;4946448;29;20082;-81
2023/07/10 11:18:16;;;;;;;15.55;4.10;;;;;;;27.82;54.54;101350.63;4946561;29;20059;-79
2023/07/10 11:20:44;;;;;;;7.00;3.50;;;;;;;27.77;55.11;101352.47;4944532;29;20048;-81
2023/07/10 11:23:32;;;;;;;4.40;3.10;;;;;;;28.09;54.66;101337.97;4942650;29;20059;-80
2023/07/10 11:26:02;;;;;;;7.88;3.53;;;;;;;28.02;53.84;101333.88;4940627;29;20087;-81
2023/07/10 11:28:31;;;;;;;10.02;3.55;;;;;;;28.24;54.14;101328.44;4941421;29;20043;-81
2023/07/10 11:31:24;;;;;;;7.13;4.10;;;;;;;28.44;52.19;101315.13;4940987;29;20114;-79
2023/07/10 11:33:53;;;;;;;7.43;4.00;;;;;;;28.20;53.60;101335.38;4939433;29;20083;-81
2023/07/10 11:36:37;;;;;;;10.10;3.65;;;;;;;28.08;54.45;101338.22;4941194;29;20048;-81
2023/07/10 11:39:18;;;;;;;6.97;3.47;;;;;;;28.82;53.51;101334.81;4939914;29;20135;-81
2023/07/10 11:42:13;;;;;;;8.13;3.60;;;;;;;28.07;53.34;101334.72;4940435;29;20118;-81
2023/07/10 11:44:41;;;;;;;6.28;3.75;;;;;;;28.31;53.23;101334.44;4940331;29;20134;-81
2023/07/10 11:47:21;;;;;;;7.60;3.50;;;;;;;28.04;52.98;101316.41;4940504;29;20051;-81
2023/07/10 11:50:13;;;;;;;5.18;3.17;;;;;;;28.16;53.22;101335.09;4939071;29;20138;-81
2023/07/10 11:52:42;;;;;;;7.47;3.35;;;;;;;28.04;54.36;101321.78;4939513;29;20066;-82
2023/07/10 11:55:26;;;;;;;6.75;3.63;;;;;;;28.25;53.42;101322.00;4941338;29;20457;-82
2023/07/10 11:58:26;;;;;;;7.18;3.20;;;;;;;28.23;52.92;101335.72;4939756;29;20056;-82
2023/07/10 12:01:13;;;;;;;6.43;3.50;;;;;;;28.49;52.90;101350.19;4935476;29;20072;-82
2023/07/10 12:03:42;;;;;;;6.75;3.55;;;;;;;27.73;52.96;101338.69;4935844;29;20087;-81
2023/07/10 12:06:17;;;;;;;5.75;3.60;;;;;;;27.94;53.42;101337.81;4941695;29;20052;-82
2023/07/10 12:08:45;;;;;;;7.93;3.47;;;;;;;27.73;52.68;101334.13;4944693;29;20135;-82
2023/07/10 12:11:30;;;;;;;5.55;3.53;;;;;;;27.73;52.77;101339.50;4945138;29;20071;-82
2023/07/10 12:14:04;;;;;;;7.47;3.22;;;;;;;28.41;52.07;101323.72;4947766;29;20051;-81
2023/07/10 12:16:31;;;;;;;8.15;3.40;;;;;;;28.17;51.71;101317.88;4946831;29;20075;-82
2023/07/10 12:19:04;;;;;;;6.00;3.33;;;;;;;27.93;50.90;101298.53;4944926;29;20051;-83
2023/07/10 12:21:31;;;;;;;5.47;2.97;;;;;;;28.38;51.28;101318.84;4946842;29;20063;-82
2023/07/10 12:24:02;;;;;;;6.47;3.42;;;;;;;27.79;51.29;101310.81;4946032;29;20075;-82
2023/07/10 12:26:30;;;;;;;4.25;2.95;;;;;;;27.58;52.53;101306.22;4944689;29;20107;-82
2023/07/10 12:28:58;;;;;;;5.68;3.03;;;;;;;27.63;52.20;101309.81;4944066;29;20047;-81
2023/07/10 12:31:26;;;;;;;5.15;3.30;;;;;;;27.89;51.84;101296.63;4942145;29;20337;-80
2023/07/10 12:33:53;;;;;;;4.93;3.05;;;;;;;27.96;52.41;101316.88;4941267;29;20116;-81
2023/07/10 12:39:53;;;;;;;5.35;3.05;;;;;;;28.02;51.00;101285.44;4957462;29;20399;-78
2023/07/10 12:42:45;;;;;;;4.90;3.08;;;;;;;28.06;50.46;101297.31;4954588;28;20059;-82
2023/07/10 12:49:06;;;;;;;4.20;2.92;;;;;;;28.32;50.79;101301.06;4843690;29;20471;-79
2023/07/10 12:52:27;;;;;;;6.43;3.20;;;;;;;28.17;49.85;101271.31;4932916;29;20051;-81
2023/07/10 12:55:03;;;;;;;4.47;2.85;;;;;;;28.28;49.42;101267.66;4928914;29;20067;-80
2023/07/10 12:57:42;;;;;;;8.63;3.13;;;;;;;28.27;50.08;101276.81;4943260;29;20062;-79
2023/07/10 13:00:44;;;;;;;6.80;3.03;;;;;;;28.28;48.96;101238.06;4945148;29;20114;-81
2023/07/10 13:03:28;;;;;;;5.45;3.38;;;;;;;28.26;48.85;101285.94;4881944;29;20498;-80
2023/07/10 13:06:05;;;;;;;5.30;3.00;;;;;;;28.38;48.55;101252.38;4931397;29;20079;-77
2023/07/10 13:08:37;;;;;;;6.60;3.65;;;;;;;28.64;48.32;101271.38;4935595;29;20051;-78
2023/07/10 13:11:04;;;;;;;8.93;4.07;;;;;;;28.38;48.72;101273.09;4937000;29;20599;-78
2023/07/10 13:13:39;;;;;;;7.70;3.00;;;;;;;28.42;49.58;101279.59;4936975;29;20487;-77
2023/07/10 13:16:17;;;;;;;10.75;2.67;;;;;;;28.23;49.44;101281.09;4936241;29;20131;-78
2023/07/10 13:18:45;;;;;;;4.53;2.80;;;;;;;28.43;49.11;101273.13;4933670;29;20044;-78
2023/07/10 13:21:15;;;;;;;6.10;3.30;;;;;;;28.20;49.04;101271.63;4935448;29;20051;-78
2023/07/10 13:23:42;;;;;;;8.05;3.17;;;;;;;28.53;49.36;101275.91;4935946;29;20138;-77
2023/07/10 13:26:20;;;;;;;5.50;3.13;;;;;;;28.52;48.08;101262.69;4936664;29;20115;-79
2023/07/10 13:28:48;;;;;;;7.30;3.20;;;;;;;28.52;48.84;101271.59;4939713;29;20059;-78
2023/07/10 13:31:16;;;;;;;9.30;3.28;;;;;;;28.22;49.22;101268.69;4938370;29;20079;-79
2023/07/10 13:33:42;;;;;;;7.07;2.85;;;;;;;28.30;49.97;101276.28;4939429;29;20064;-79
2023/07/10 13:36:14;;;;;;;5.95;3.25;;;;;;;28.53;48.93;101261.63;4943700;29;20544;-81
2023/07/10 13:38:41;;;;;;;;;;;;;;;28.80;47.55;101248.06;4945217;29;20504;-82
2023/07/10 13:41:13;;;;;;;7.82;3.45;;;;;;;28.72;46.32;101235.91;4942764;29;19923;-80
2023/07/10 13:43:39;;;;;;;;;;;;;;;28.31;47.12;101245.63;4944866;29;20103;-80
2023/07/10 13:46:19;;;;;;;5.22;3.00;;;;;;;27.92;48.09;101253.88;4944436;29;20371;-79
2023/07/10 13:48:46;;;;;;;5.88;3.38;;;;;;;28.38;48.18;101240.81;4939332;29;20044;-79
2023/07/10 13:51:14;;;;;;;5.32;3.00;;;;;;;28.63;48.17;101238.28;4944694;29;20135;-81
2023/07/10 13:53:43;;;;;;;9.98;3.42;;;;;;;28.97;47.73;101230.63;4946426;29;20062;-82
2023/07/10 13:56:13;;;;;;;6.95;3.33;;;;;;;29.10;47.96;101240.13;4944122;29;20424;-81
2023/07/10 13:58:40;;;;;;;5.03;2.80;;;;;;;28.62;47.39;101242.03;4943518;29;20177;-80
2023/07/10 14:04:18;;;;;;;17.40;4.53;;;;;;;28.58;49.17;101250.88;4907166;29;20062;-80
2023/07/10 14:06:49;;;;;;;5.22;2.83;;;;;;;28.16;49.05;101258.94;4942496;29;20052;-79
2023/07/10 14:09:18;;;;;;;5.93;3.17;;;;;;;28.22;49.12;101255.25;4940287;29;20055;-81
2023/07/10 14:11:46;;;;;;;4.93;2.75;;;;;;;28.31;48.38;101245.63;4940057;29;20086;-81
2023/07/10 14:14:16;;;;;;;5.80;3.53;;;;;;;28.54;48.26;101247.09;4940750;29;20043;-81
2023/07/10 14:16:43;;;;;;;6.35;3.30;;;;;;;28.58;48.17;101248.19;4934327;29;20048;-79
2023/07/10 14:19:15;;;;;;;5.03;3.08;;;;;;;28.55;48.06;101246.03;4937303;29;20048;-81
2023/07/10 14:21:41;;;;;;;7.28;3.00;;;;;;;28.04;48.26;101246.47;4939317;29;20090;-81
2023/07/10 14:24:10;;;;;;;8.32;3.25;;;;;;;28.30;48.90;101249.38;4938964;29;20086;-80
2023/07/10 14:26:41;;;;;;;6.35;3.10;;;;;;;28.40;48.86;101254.81;4934495;29;20127;-82
2023/07/10 14:29:15;;;;;;;6.65;3.20;;;;;;;28.47;48.82;101252.72;4937780;29;20044;-80
2023/07/10 14:31:42;;;;;;;6.22;3.42;;;;;;;28.42;48.43;101237.31;4941975;29;20063;-81
2023/07/10 14:34:08;;;;;;;3.08;2.55;;;;;;;28.30;48.50;101238.63;4948959;29;20071;-82
2023/07/10 14:36:35;;;;;;;4.00;2.92;;;;;;;28.62;48.64;101242.03;4948750;29;20138;-82
2023/07/10 14:39:02;;;;;;;5.78;3.00;;;;;;;28.91;47.58;101234.38;4941648;29;20051;-80
2023/07/10 14:41:30;;;;;;;8.20;3.47;;;;;;;28.93;46.56;101232.22;4940158;29;20051;-81
2023/07/10 14:43:57;;;;;;;6.63;3.10;;;;;;;28.99;46.50;101224.97;4934785;29;20492;-82
2023/07/10 14:46:30;;;;;;;5.68;3.30;;;;;;;28.80;46.66;101231.91;4940439;29;20388;-81
2023/07/10 14:48:57;;;;;;;6.22;3.38;;;;;;;28.57;46.71;101227.72;4939514;29;20135;-82
2023/07/10 14:51:23;;;;;;;6.30;2.97;;;;;;;28.51;46.66;101224.19;4936974;29;20134;-82
2023/07/10 14:53:50;;;;;;;7.03;3.08;;;;;;;28.45;46.71;101214.47;4940777;29;20321;-82
2023/07/10 14:56:18;;;;;;;5.35;2.90;;;;;;;28.30;47.75;101219.78;4939850;29;20079;-80